sensor_id;sensor_type;location;lat;lon;timestamp;pressure;altitude;pressure_sealevel;temperature;humidity
62849;BME280;48941;49.516;8.286;2023-05-25T00:01:24;100985.66;;;11.34;67.09
62849;BME280;48941;49.516;8.286;2023-05-25T00:03:52;100986.00;;;11.29;67.65
62849;BME280;48941;49.516;8.286;2023-05-25T00:06:21;100980.91;;;11.26;67.38
62849;BME280;48941;49.516;8.286;2023-05-25T00:08:51;100984.53;;;11.25;67.57
62849;BME280;48941;49.516;8.286;2023-05-25T00:11:21;100983.69;;;11.25;67.57
62849;BME280;48941;49.516;8.286;2023-05-25T00:13:49;100978.56;;;11.22;67.75
62849;BME280;48941;49.516;8.286;2023-05-25T00:16:17;100978.56;;;11.22;67.63
62849;BME280;48941;49.516;8.286;2023-05-25T00:18:46;100983.88;;;11.22;68.16
62849;BME280;48941;49.516;8.286;2023-05-25T00:21:18;100969.44;;;11.13;68.56
62849;BME280;48941;49.516;8.286;2023-05-25T00:23:46;100976.59;;;11.12;68.72
62849;BME280;48941;49.516;8.286;2023-05-25T00:26:14;100966.88;;;11.11;68.58
62849;BME280;48941;49.516;8.286;2023-05-25T00:28:42;100972.66;;;11.05;68.91
62849;BME280;48941;49.516;8.286;2023-05-25T00:31:10;100972.88;;;11.02;69.39
62849;BME280;48941;49.516;8.286;2023-05-25T00:33:40;100979.16;;;11.01;69.50
62849;BME280;48941;49.516;8.286;2023-05-25T00:36:09;100978.44;;;10.99;69.89
62849;BME280;48941;49.516;8.286;2023-05-25T00:38:37;100975.78;;;10.99;69.66
62849;BME280;48941;49.516;8.286;2023-05-25T00:41:05;100980.34;;;10.97;69.96
62849;BME280;48941;49.516;8.286;2023-05-25T00:43:32;100975.25;;;10.94;70.40
62849;BME280;48941;49.516;8.286;2023-05-25T00:46:01;100980.56;;;10.94;70.41
62849;BME280;48941;49.516;8.286;2023-05-25T00:48:29;100977.28;;;10.90;70.31
62849;BME280;48941;49.516;8.286;2023-05-25T00:50:57;100974.31;;;10.82;71.04
62849;BME280;48941;49.516;8.286;2023-05-25T00:53:27;100982.25;;;10.71;71.49
62849;BME280;48941;49.516;8.286;2023-05-25T00:56:04;100981.16;;;10.73;71.54
62849;BME280;48941;49.516;8.286;2023-05-25T00:58:34;100984.06;;;10.70;71.69
62849;BME280;48941;49.516;8.286;2023-05-25T01:01:05;100976.06;;;10.70;71.57
62849;BME280;48941;49.516;8.286;2023-05-25T01:03:39;100984.47;;;10.64;71.92
62849;BME280;48941;49.516;8.286;2023-05-25T01:06:13;100981.59;;;10.67;72.18
62849;BME280;48941;49.516;8.286;2023-05-25T01:08:48;100982.97;;;10.73;71.80
62849;BME280;48941;49.516;8.286;2023-05-25T01:11:20;100992.47;;;10.64;72.28
62849;BME280;48941;49.516;8.286;2023-05-25T01:13:53;100993.97;;;10.55;72.44
62849;BME280;48941;49.516;8.286;2023-05-25T01:16:21;100993.31;;;10.52;72.75
62849;BME280;48941;49.516;8.286;2023-05-25T01:18:51;101000.47;;;10.51;72.73
62849;BME280;48941;49.516;8.286;2023-05-25T01:21:24;100993.31;;;10.52;72.77
62849;BME280;48941;49.516;8.286;2023-05-25T01:23:58;100993.22;;;10.53;72.73
62849;BME280;48941;49.516;8.286;2023-05-25T01:26:33;100995.16;;;10.51;73.08
62849;BME280;48941;49.516;8.286;2023-05-25T01:29:02;100997.16;;;10.48;73.15
62849;BME280;48941;49.516;8.286;2023-05-25T01:31:32;100995.34;;;10.48;73.60
62849;BME280;48941;49.516;8.286;2023-05-25T01:34:01;100993.34;;;10.39;74.45
62849;BME280;48941;49.516;8.286;2023-05-25T01:36:32;100991.00;;;10.34;74.83
62849;BME280;48941;49.516;8.286;2023-05-25T01:38:59;100994.81;;;10.30;75.20
62849;BME280;48941;49.516;8.286;2023-05-25T01:41:27;100993.88;;;10.31;75.50
62849;BME280;48941;49.516;8.286;2023-05-25T01:43:55;100996.53;;;10.31;75.42
62849;BME280;48941;49.516;8.286;2023-05-25T01:46:26;101002.50;;;10.35;75.42
62849;BME280;48941;49.516;8.286;2023-05-25T01:49:04;100994.63;;;10.33;76.04
62849;BME280;48941;49.516;8.286;2023-05-25T01:51:40;101004.44;;;10.33;76.28
62849;BME280;48941;49.516;8.286;2023-05-25T01:54:14;101002.91;;;10.29;76.49
62849;BME280;48941;49.516;8.286;2023-05-25T01:56:45;100999.38;;;10.28;76.61
62849;BME280;48941;49.516;8.286;2023-05-25T01:59:15;101003.53;;;10.20;77.60
62849;BME280;48941;49.516;8.286;2023-05-25T02:01:47;101014.09;;;10.21;77.63
62849;BME280;48941;49.516;8.286;2023-05-25T02:04:18;101013.00;;;10.24;77.44
62849;BME280;48941;49.516;8.286;2023-05-25T02:06:50;101012.16;;;10.23;77.54
62849;BME280;48941;49.516;8.286;2023-05-25T02:09:18;101009.41;;;10.25;78.18
62849;BME280;48941;49.516;8.286;2023-05-25T02:11:46;101010.34;;;10.24;78.24
62849;BME280;48941;49.516;8.286;2023-05-25T02:14:14;100999.06;;;10.20;78.14
62849;BME280;48941;49.516;8.286;2023-05-25T02:16:42;100992.88;;;10.20;78.62
62849;BME280;48941;49.516;8.286;2023-05-25T02:19:11;100993.09;;;10.16;78.97
62849;BME280;48941;49.516;8.286;2023-05-25T02:21:40;100988.53;;;10.19;79.25
62849;BME280;48941;49.516;8.286;2023-05-25T02:24:09;100988.81;;;10.14;79.52
62849;BME280;48941;49.516;8.286;2023-05-25T02:26:38;100990.66;;;10.13;79.13
62849;BME280;48941;49.516;8.286;2023-05-25T02:29:06;100986.25;;;10.12;79.35
62849;BME280;48941;49.516;8.286;2023-05-25T02:31:33;100987.97;;;10.13;79.69
62849;BME280;48941;49.516;8.286;2023-05-25T02:34:01;100983.81;;;10.09;79.89
62849;BME280;48941;49.516;8.286;2023-05-25T02:36:29;100983.94;;;10.08;79.84
62849;BME280;48941;49.516;8.286;2023-05-25T02:38:57;100969.13;;;10.04;80.09
62849;BME280;48941;49.516;8.286;2023-05-25T02:41:26;100972.88;;;10.01;80.25
62849;BME280;48941;49.516;8.286;2023-05-25T02:43:54;100974.78;;;9.99;80.81
62849;BME280;48941;49.516;8.286;2023-05-25T02:46:21;100974.13;;;9.95;80.81
62849;BME280;48941;49.516;8.286;2023-05-25T02:48:49;100982.44;;;9.91;81.29
62849;BME280;48941;49.516;8.286;2023-05-25T02:51:17;100975.38;;;9.90;81.35
62849;BME280;48941;49.516;8.286;2023-05-25T02:53:45;100986.25;;;9.87;81.31
62849;BME280;48941;49.516;8.286;2023-05-25T02:56:13;100991.69;;;9.85;81.54
62849;BME280;48941;49.516;8.286;2023-05-25T02:58:43;100994.13;;;9.88;81.63
62849;BME280;48941;49.516;8.286;2023-05-25T03:01:10;100995.94;;;9.88;81.38
62849;BME280;48941;49.516;8.286;2023-05-25T03:03:45;100995.94;;;9.88;81.31
62849;BME280;48941;49.516;8.286;2023-05-25T03:06:13;101007.13;;;9.93;81.38
62849;BME280;48941;49.516;8.286;2023-05-25T03:08:41;101002.56;;;9.95;81.59
62849;BME280;48941;49.516;8.286;2023-05-25T03:11:12;100994.56;;;9.95;81.34
62849;BME280;48941;49.516;8.286;2023-05-25T03:13:40;100992.84;;;9.94;81.33
62849;BME280;48941;49.516;8.286;2023-05-25T03:16:09;100993.81;;;9.93;81.75
62849;BME280;48941;49.516;8.286;2023-05-25T03:18:38;101002.84;;;9.90;81.47
62849;BME280;48941;49.516;8.286;2023-05-25T03:21:05;101002.97;;;9.89;81.69
62849;BME280;48941;49.516;8.286;2023-05-25T03:23:33;100997.84;;;9.86;81.96
62849;BME280;48941;49.516;8.286;2023-05-25T03:26:01;101000.59;;;9.84;82.20
62849;BME280;48941;49.516;8.286;2023-05-25T03:28:29;101006.78;;;9.85;82.14
62849;BME280;48941;49.516;8.286;2023-05-25T03:30:56;101005.16;;;9.82;82.20
62849;BME280;48941;49.516;8.286;2023-05-25T03:33:25;101001.88;;;9.79;82.17
62849;BME280;48941;49.516;8.286;2023-05-25T03:35:53;101003.91;;;9.75;82.64
62849;BME280;48941;49.516;8.286;2023-05-25T03:38:21;101007.41;;;9.75;82.68
62849;BME280;48941;49.516;8.286;2023-05-25T03:40:49;101008.34;;;9.74;82.75
62849;BME280;48941;49.516;8.286;2023-05-25T03:43:19;101004.09;;;9.72;82.81
62849;BME280;48941;49.516;8.286;2023-05-25T03:45:46;101009.50;;;9.70;83.04
62849;BME280;48941;49.516;8.286;2023-05-25T03:48:14;101014.06;;;9.68;82.96
62849;BME280;48941;49.516;8.286;2023-05-25T03:50:43;101007.91;;;9.68;83.47
62849;BME280;48941;49.516;8.286;2023-05-25T03:53:11;101020.47;;;9.66;83.65
62849;BME280;48941;49.516;8.286;2023-05-25T03:55:39;101025.88;;;9.64;83.78
62849;BME280;48941;49.516;8.286;2023-05-25T03:58:07;101027.78;;;9.62;83.55
62849;BME280;48941;49.516;8.286;2023-05-25T04:00:35;101027.91;;;9.61;83.71
62849;BME280;48941;49.516;8.286;2023-05-25T04:03:04;101034.91;;;9.62;84.06
62849;BME280;48941;49.516;8.286;2023-05-25T04:05:36;101039.28;;;9.63;84.21
62849;BME280;48941;49.516;8.286;2023-05-25T04:08:05;101041.97;;;9.63;84.08
62849;BME280;48941;49.516;8.286;2023-05-25T04:10:34;101045.25;;;9.66;84.22
62849;BME280;48941;49.516;8.286;2023-05-25T04:13:01;101056.75;;;9.67;84.30
62849;BME280;48941;49.516;8.286;2023-05-25T04:15:29;101056.84;;;9.65;84.38
62849;BME280;48941;49.516;8.286;2023-05-25T04:18:00;101053.13;;;9.68;84.59
62849;BME280;48941;49.516;8.286;2023-05-25T04:20:28;101068.03;;;9.70;84.65
62849;BME280;48941;49.516;8.286;2023-05-25T04:22:56;101069.84;;;9.70;84.71
62849;BME280;48941;49.516;8.286;2023-05-25T04:25:25;101071.56;;;9.71;84.33
62849;BME280;48941;49.516;8.286;2023-05-25T04:28:08;101068.78;;;9.72;84.93
62849;BME280;48941;49.516;8.286;2023-05-25T04:30:37;101072.19;;;9.74;84.90
62849;BME280;48941;49.516;8.286;2023-05-25T04:33:08;101072.97;;;9.76;84.95
62849;BME280;48941;49.516;8.286;2023-05-25T04:35:37;101070.09;;;9.80;84.61
62849;BME280;48941;49.516;8.286;2023-05-25T04:38:06;101070.84;;;9.82;84.71
62849;BME280;48941;49.516;8.286;2023-05-25T04:40:35;101068.63;;;9.88;84.47
62849;BME280;48941;49.516;8.286;2023-05-25T04:43:03;101072.78;;;9.92;84.78
62849;BME280;48941;49.516;8.286;2023-05-25T04:45:35;101070.78;;;9.96;84.63
62849;BME280;48941;49.516;8.286;2023-05-25T04:48:03;101073.03;;;10.02;84.26
62849;BME280;48941;49.516;8.286;2023-05-25T04:50:32;101072.41;;;10.11;84.07
62849;BME280;48941;49.516;8.286;2023-05-25T04:53:01;101074.09;;;10.12;83.77
62849;BME280;48941;49.516;8.286;2023-05-25T04:55:29;101071.16;;;10.17;83.90
62849;BME280;48941;49.516;8.286;2023-05-25T04:57:58;101073.50;;;10.22;83.37
62849;BME280;48941;49.516;8.286;2023-05-25T05:00:26;101075.75;;;10.28;83.49
62849;BME280;48941;49.516;8.286;2023-05-25T05:02:54;101080.91;;;10.31;83.20
62849;BME280;48941;49.516;8.286;2023-05-25T05:05:23;101079.84;;;10.33;83.33
62849;BME280;48941;49.516;8.286;2023-05-25T05:07:51;101081.31;;;10.38;82.96
62849;BME280;48941;49.516;8.286;2023-05-25T05:10:19;101078.97;;;10.46;83.21
62849;BME280;48941;49.516;8.286;2023-05-25T05:12:47;101076.34;;;10.59;82.73
62849;BME280;48941;49.516;8.286;2023-05-25T05:15:16;101082.28;;;10.62;82.05
62849;BME280;48941;49.516;8.286;2023-05-25T05:17:44;101087.09;;;10.70;81.80
62849;BME280;48941;49.516;8.286;2023-05-25T05:20:12;101081.31;;;10.76;81.68
62849;BME280;48941;49.516;8.286;2023-05-25T05:22:40;101085.81;;;10.75;81.77
62849;BME280;48941;49.516;8.286;2023-05-25T05:25:09;101089.03;;;10.81;81.31
62849;BME280;48941;49.516;8.286;2023-05-25T05:27:37;101093.59;;;10.91;80.87
62849;BME280;48941;49.516;8.286;2023-05-25T05:30:05;101092.22;;;10.99;81.13
62849;BME280;48941;49.516;8.286;2023-05-25T05:32:35;101090.69;;;11.07;80.11
62849;BME280;48941;49.516;8.286;2023-05-25T05:35:03;101087.47;;;11.15;79.74
62849;BME280;48941;49.516;8.286;2023-05-25T05:37:31;101091.94;;;11.27;79.97
62849;BME280;48941;49.516;8.286;2023-05-25T05:40:00;101092.13;;;11.37;78.93
62849;BME280;48941;49.516;8.286;2023-05-25T05:42:29;101094.44;;;11.42;77.95
62849;BME280;48941;49.516;8.286;2023-05-25T05:44:56;101098.50;;;11.47;77.59
62849;BME280;48941;49.516;8.286;2023-05-25T05:47:24;101096.34;;;11.52;77.40
62849;BME280;48941;49.516;8.286;2023-05-25T05:49:53;101095.25;;;11.55;76.64
62849;BME280;48941;49.516;8.286;2023-05-25T05:52:21;101096.84;;;11.57;76.09
62849;BME280;48941;49.516;8.286;2023-05-25T05:54:49;101097.13;;;11.66;75.85
62849;BME280;48941;49.516;8.286;2023-05-25T05:57:17;101097.56;;;11.72;75.03
62849;BME280;48941;49.516;8.286;2023-05-25T05:59:45;101101.69;;;11.76;74.57
62849;BME280;48941;49.516;8.286;2023-05-25T06:02:12;101095.38;;;11.90;74.45
62849;BME280;48941;49.516;8.286;2023-05-25T06:04:40;101099.28;;;11.98;74.66
62849;BME280;48941;49.516;8.286;2023-05-25T06:07:09;101105.34;;;12.00;73.49
62849;BME280;48941;49.516;8.286;2023-05-25T06:09:37;101106.72;;;12.05;73.28
62849;BME280;48941;49.516;8.286;2023-05-25T06:12:06;101113.41;;;12.11;72.70
62849;BME280;48941;49.516;8.286;2023-05-25T06:14:34;101119.13;;;12.18;73.48
62849;BME280;48941;49.516;8.286;2023-05-25T06:17:01;101110.53;;;12.25;72.58
62849;BME280;48941;49.516;8.286;2023-05-25T06:19:29;101119.28;;;12.27;72.08
62849;BME280;48941;49.516;8.286;2023-05-25T06:21:57;101115.94;;;12.37;72.71
62849;BME280;48941;49.516;8.286;2023-05-25T06:24:26;101118.97;;;12.43;72.74
62849;BME280;48941;49.516;8.286;2023-05-25T06:26:54;101121.44;;;12.46;72.53
62849;BME280;48941;49.516;8.286;2023-05-25T06:29:22;101114.41;;;12.57;72.52
62849;BME280;48941;49.516;8.286;2023-05-25T06:31:50;101116.59;;;12.63;72.74
62849;BME280;48941;49.516;8.286;2023-05-25T06:34:18;101117.97;;;12.68;71.81
62849;BME280;48941;49.516;8.286;2023-05-25T06:36:46;101126.34;;;12.75;71.08
62849;BME280;48941;49.516;8.286;2023-05-25T06:39:14;101121.34;;;12.82;70.33
62849;BME280;48941;49.516;8.286;2023-05-25T06:41:43;101126.59;;;12.83;69.18
62849;BME280;48941;49.516;8.286;2023-05-25T06:44:11;101124.91;;;12.93;69.16
62849;BME280;48941;49.516;8.286;2023-05-25T06:46:39;101134.16;;;13.01;68.27
62849;BME280;48941;49.516;8.286;2023-05-25T06:49:07;101134.41;;;13.09;67.62
62849;BME280;48941;49.516;8.286;2023-05-25T06:51:35;101123.22;;;13.15;67.17
62849;BME280;48941;49.516;8.286;2023-05-25T06:54:03;101127.94;;;13.23;66.37
62849;BME280;48941;49.516;8.286;2023-05-25T06:56:30;101129.06;;;13.31;66.46
62849;BME280;48941;49.516;8.286;2023-05-25T06:59:00;101130.75;;;13.44;66.13
62849;BME280;48941;49.516;8.286;2023-05-25T07:01:27;101135.97;;;13.57;65.75
62849;BME280;48941;49.516;8.286;2023-05-25T07:03:55;101136.09;;;13.66;64.60
62849;BME280;48941;49.516;8.286;2023-05-25T07:06:23;101140.66;;;13.75;63.36
62849;BME280;48941;49.516;8.286;2023-05-25T07:08:53;101135.09;;;13.79;62.99
62849;BME280;48941;49.516;8.286;2023-05-25T07:11:21;101135.53;;;13.84;62.13
62849;BME280;48941;49.516;8.286;2023-05-25T07:13:49;101127.75;;;13.92;62.70
62849;BME280;48941;49.516;8.286;2023-05-25T07:16:18;101135.13;;;14.00;61.83
62849;BME280;48941;49.516;8.286;2023-05-25T07:18:46;101128.53;;;14.04;61.21
62849;BME280;48941;49.516;8.286;2023-05-25T07:21:14;101122.41;;;14.13;61.48
62849;BME280;48941;49.516;8.286;2023-05-25T07:23:42;101131.25;;;14.25;60.96
62849;BME280;48941;49.516;8.286;2023-05-25T07:26:13;101124.41;;;14.32;59.83
62849;BME280;48941;49.516;8.286;2023-05-25T07:28:41;101124.47;;;14.42;60.65
62849;BME280;48941;49.516;8.286;2023-05-25T07:31:09;101121.00;;;14.51;60.48
62849;BME280;48941;49.516;8.286;2023-05-25T07:33:39;101120.88;;;14.64;59.85
62849;BME280;48941;49.516;8.286;2023-05-25T07:36:07;101120.19;;;14.71;59.19
62849;BME280;48941;49.516;8.286;2023-05-25T07:38:36;101117.56;;;14.81;58.95
62849;BME280;48941;49.516;8.286;2023-05-25T07:41:03;101127.22;;;14.93;58.74
62849;BME280;48941;49.516;8.286;2023-05-25T07:43:31;101131.47;;;14.96;58.36
62849;BME280;48941;49.516;8.286;2023-05-25T07:46:00;101127.00;;;15.06;58.90
62849;BME280;48941;49.516;8.286;2023-05-25T07:48:27;101134.81;;;15.19;57.64
62849;BME280;48941;49.516;8.286;2023-05-25T07:50:58;101134.44;;;15.24;56.24
62849;BME280;48941;49.516;8.286;2023-05-25T07:53:27;101138.13;;;15.32;56.33
62849;BME280;48941;49.516;8.286;2023-05-25T07:55:55;101134.34;;;15.45;56.25
62849;BME280;48941;49.516;8.286;2023-05-25T07:58:22;101136.06;;;15.56;55.47
62849;BME280;48941;49.516;8.286;2023-05-25T08:00:50;101140.06;;;15.61;55.75
62849;BME280;48941;49.516;8.286;2023-05-25T08:03:19;101139.38;;;15.69;54.84
62849;BME280;48941;49.516;8.286;2023-05-25T08:06:02;101133.91;;;15.80;54.02
62849;BME280;48941;49.516;8.286;2023-05-25T08:08:31;101142.97;;;15.89;53.44
62849;BME280;48941;49.516;8.286;2023-05-25T08:10:58;101143.81;;;15.99;52.20
62849;BME280;48941;49.516;8.286;2023-05-25T08:13:26;101143.69;;;16.10;52.03
62849;BME280;48941;49.516;8.286;2023-05-25T08:15:54;101136.94;;;16.26;52.17
62849;BME280;48941;49.516;8.286;2023-05-25T08:18:22;101134.63;;;16.41;52.17
62849;BME280;48941;49.516;8.286;2023-05-25T08:20:50;101147.22;;;16.60;51.83
62849;BME280;48941;49.516;8.286;2023-05-25T08:23:19;101140.69;;;16.72;50.93
62849;BME280;48941;49.516;8.286;2023-05-25T08:25:47;101141.78;;;16.89;50.04
62849;BME280;48941;49.516;8.286;2023-05-25T08:28:16;101141.63;;;17.00;49.68
62849;BME280;48941;49.516;8.286;2023-05-25T08:30:44;101141.28;;;17.13;49.46
62849;BME280;48941;49.516;8.286;2023-05-25T08:33:12;101141.91;;;17.35;49.11
62849;BME280;48941;49.516;8.286;2023-05-25T08:35:40;101136.91;;;17.49;48.25
62849;BME280;48941;49.516;8.286;2023-05-25T08:38:08;101135.94;;;17.68;48.94
62849;BME280;48941;49.516;8.286;2023-05-25T08:40:40;101143.47;;;17.92;48.79
62849;BME280;48941;49.516;8.286;2023-05-25T08:43:08;101146.50;;;18.07;46.35
62849;BME280;48941;49.516;8.286;2023-05-25T08:45:36;101146.56;;;18.16;46.04
62849;BME280;48941;49.516;8.286;2023-05-25T08:48:14;101148.84;;;18.28;45.88
62849;BME280;48941;49.516;8.286;2023-05-25T08:51:06;101142.84;;;18.35;45.64
62849;BME280;48941;49.516;8.286;2023-05-25T08:53:37;101137.34;;;18.44;44.72
62849;BME280;48941;49.516;8.286;2023-05-25T08:56:09;101128.41;;;18.62;44.77
62849;BME280;48941;49.516;8.286;2023-05-25T08:58:44;101136.06;;;18.75;44.77
62849;BME280;48941;49.516;8.286;2023-05-25T09:01:14;101137.22;;;18.90;44.73
62849;BME280;48941;49.516;8.286;2023-05-25T09:03:45;101138.47;;;19.04;44.35
62849;BME280;48941;49.516;8.286;2023-05-25T09:06:14;101129.94;;;19.17;44.19
62849;BME280;48941;49.516;8.286;2023-05-25T09:08:43;101133.19;;;19.28;42.73
62849;BME280;48941;49.516;8.286;2023-05-25T09:11:13;101137.97;;;19.43;41.90
62849;BME280;48941;49.516;8.286;2023-05-25T09:13:52;101145.78;;;19.46;41.87
62849;BME280;48941;49.516;8.286;2023-05-25T09:16:21;101138.72;;;19.53;41.72
62849;BME280;48941;49.516;8.286;2023-05-25T09:18:49;101131.78;;;19.59;41.93
62849;BME280;48941;49.516;8.286;2023-05-25T09:21:17;101145.22;;;19.77;42.16
62849;BME280;48941;49.516;8.286;2023-05-25T09:23:45;101139.16;;;19.83;41.27
62849;BME280;48941;49.516;8.286;2023-05-25T09:26:15;101142.06;;;19.98;40.88
62849;BME280;48941;49.516;8.286;2023-05-25T09:28:46;101140.06;;;20.08;40.30
62849;BME280;48941;49.516;8.286;2023-05-25T09:31:14;101133.47;;;20.19;39.89
62849;BME280;48941;49.516;8.286;2023-05-25T09:33:43;101137.03;;;20.27;41.49
62849;BME280;48941;49.516;8.286;2023-05-25T09:36:12;101130.09;;;20.49;42.45
62849;BME280;48941;49.516;8.286;2023-05-25T09:38:42;101125.72;;;20.73;42.07
62849;BME280;48941;49.516;8.286;2023-05-25T09:41:10;101133.13;;;20.87;41.48
62849;BME280;48941;49.516;8.286;2023-05-25T09:43:40;101134.78;;;21.05;40.70
62849;BME280;48941;49.516;8.286;2023-05-25T09:46:23;101131.03;;;21.06;40.30
62849;BME280;48941;49.516;8.286;2023-05-25T09:48:51;101133.88;;;21.21;40.60
62849;BME280;48941;49.516;8.286;2023-05-25T09:51:19;101132.81;;;21.30;40.63
62849;BME280;48941;49.516;8.286;2023-05-25T09:53:48;101139.22;;;21.45;40.14
62849;BME280;48941;49.516;8.286;2023-05-25T09:56:16;101146.72;;;21.66;40.04
62849;BME280;48941;49.516;8.286;2023-05-25T09:58:46;101144.03;;;21.66;39.60
62849;BME280;48941;49.516;8.286;2023-05-25T10:01:13;101152.53;;;21.63;40.02
62849;BME280;48941;49.516;8.286;2023-05-25T10:03:44;101149.78;;;21.72;39.49
62849;BME280;48941;49.516;8.286;2023-05-25T10:06:30;101146.41;;;21.70;39.15
62849;BME280;48941;49.516;8.286;2023-05-25T10:09:00;101151.44;;;21.81;39.21
62849;BME280;48941;49.516;8.286;2023-05-25T10:11:30;101152.38;;;21.88;38.28
62849;BME280;48941;49.516;8.286;2023-05-25T10:14:04;101155.53;;;21.77;38.80
62849;BME280;48941;49.516;8.286;2023-05-25T10:16:33;101158.19;;;21.85;38.03
62849;BME280;48941;49.516;8.286;2023-05-25T10:19:05;101158.78;;;21.95;37.92
62849;BME280;48941;49.516;8.286;2023-05-25T10:21:36;101157.75;;;21.96;37.81
62849;BME280;48941;49.516;8.286;2023-05-25T10:24:12;101145.66;;;22.07;37.75
62849;BME280;48941;49.516;8.286;2023-05-25T10:26:44;101153.69;;;22.23;38.00
62849;BME280;48941;49.516;8.286;2023-05-25T10:29:17;101151.53;;;22.42;36.76
62849;BME280;48941;49.516;8.286;2023-05-25T10:31:46;101140.72;;;22.57;36.95
62849;BME280;48941;49.516;8.286;2023-05-25T10:34:14;101141.56;;;22.72;36.77
62849;BME280;48941;49.516;8.286;2023-05-25T10:36:42;101138.13;;;22.78;36.65
62849;BME280;48941;49.516;8.286;2023-05-25T10:39:11;101136.53;;;22.84;36.38
62849;BME280;48941;49.516;8.286;2023-05-25T10:41:40;101132.16;;;22.83;36.60
62849;BME280;48941;49.516;8.286;2023-05-25T10:44:09;101140.19;;;22.76;36.89
62849;BME280;48941;49.516;8.286;2023-05-25T10:46:39;101140.31;;;22.83;36.23
62849;BME280;48941;49.516;8.286;2023-05-25T10:49:09;101135.88;;;22.82;35.82
62849;BME280;48941;49.516;8.286;2023-05-25T10:51:37;101142.34;;;22.81;35.48
62849;BME280;48941;49.516;8.286;2023-05-25T10:54:06;101138.28;;;22.62;35.63
62849;BME280;48941;49.516;8.286;2023-05-25T10:56:34;101139.91;;;22.71;35.28
62849;BME280;48941;49.516;8.286;2023-05-25T10:59:02;101130.09;;;22.85;35.05
62849;BME280;48941;49.516;8.286;2023-05-25T11:01:30;101142.47;;;23.02;34.86
62849;BME280;48941;49.516;8.286;2023-05-25T11:04:14;101139.78;;;23.17;34.71
62849;BME280;48941;49.516;8.286;2023-05-25T11:07:05;101140.25;;;23.21;34.45
62849;BME280;48941;49.516;8.286;2023-05-25T11:09:42;101130.19;;;23.06;34.46
62849;BME280;48941;49.516;8.286;2023-05-25T11:12:20;101135.84;;;23.05;34.21
62849;BME280;48941;49.516;8.286;2023-05-25T11:15:10;101138.66;;;23.12;34.67
62849;BME280;48941;49.516;8.286;2023-05-25T11:17:45;101135.19;;;23.33;34.24
62849;BME280;48941;49.516;8.286;2023-05-25T11:20:22;101132.25;;;23.34;34.26
62849;BME280;48941;49.516;8.286;2023-05-25T11:22:50;101131.41;;;23.34;33.50
62849;BME280;48941;49.516;8.286;2023-05-25T11:25:36;101126.75;;;23.27;33.81
62849;BME280;48941;49.516;8.286;2023-05-25T11:28:05;101137.34;;;23.37;34.15
62849;BME280;48941;49.516;8.286;2023-05-25T11:30:33;101132.06;;;23.36;33.31
62849;BME280;48941;49.516;8.286;2023-05-25T11:33:02;101119.91;;;23.46;33.26
62849;BME280;48941;49.516;8.286;2023-05-25T11:35:32;101117.72;;;23.42;33.77
62849;BME280;48941;49.516;8.286;2023-05-25T11:38:05;101117.91;;;23.40;33.31
62849;BME280;48941;49.516;8.286;2023-05-25T11:40:33;101112.94;;;23.44;33.72
62849;BME280;48941;49.516;8.286;2023-05-25T11:43:13;101111.03;;;23.59;33.19
62849;BME280;48941;49.516;8.286;2023-05-25T11:45:41;101110.63;;;23.41;33.37
62849;BME280;48941;49.516;8.286;2023-05-25T11:48:12;101109.28;;;23.52;33.72
62849;BME280;48941;49.516;8.286;2023-05-25T11:50:43;101098.22;;;23.53;33.09
62849;BME280;48941;49.516;8.286;2023-05-25T11:53:11;101100.03;;;23.67;34.31
62849;BME280;48941;49.516;8.286;2023-05-25T11:55:40;101095.31;;;23.91;33.37
62849;BME280;48941;49.516;8.286;2023-05-25T11:58:19;101104.91;;;24.09;32.92
62849;BME280;48941;49.516;8.286;2023-05-25T12:00:47;101104.97;;;24.15;32.68
62849;BME280;48941;49.516;8.286;2023-05-25T12:03:28;101098.63;;;24.36;32.56
62849;BME280;48941;49.516;8.286;2023-05-25T12:05:58;101098.00;;;24.56;31.85
62849;BME280;48941;49.516;8.286;2023-05-25T12:08:32;101092.25;;;24.72;32.20
62849;BME280;48941;49.516;8.286;2023-05-25T12:11:00;101094.75;;;24.67;31.19
62849;BME280;48941;49.516;8.286;2023-05-25T12:13:28;101093.63;;;24.90;31.65
62849;BME280;48941;49.516;8.286;2023-05-25T12:15:57;101093.44;;;24.98;31.06
62849;BME280;48941;49.516;8.286;2023-05-25T12:18:26;101090.88;;;24.90;30.54
62849;BME280;48941;49.516;8.286;2023-05-25T12:20:55;101081.91;;;24.96;31.33
62849;BME280;48941;49.516;8.286;2023-05-25T12:23:24;101080.09;;;25.10;30.92
62849;BME280;48941;49.516;8.286;2023-05-25T12:26:07;101091.41;;;25.07;31.12
62849;BME280;48941;49.516;8.286;2023-05-25T12:28:35;101072.34;;;25.07;31.41
62849;BME280;48941;49.516;8.286;2023-05-25T12:31:19;101076.94;;;25.06;31.52
62849;BME280;48941;49.516;8.286;2023-05-25T12:34:06;101071.84;;;25.31;31.31
62849;BME280;48941;49.516;8.286;2023-05-25T12:36:40;101083.59;;;25.32;31.40
62849;BME280;48941;49.516;8.286;2023-05-25T12:39:10;101073.13;;;25.35;30.33
62849;BME280;48941;49.516;8.286;2023-05-25T12:41:46;101077.47;;;25.23;30.52
62849;BME280;48941;49.516;8.286;2023-05-25T12:44:18;101072.81;;;25.17;30.98
62849;BME280;48941;49.516;8.286;2023-05-25T12:46:47;101072.94;;;25.02;31.29
62849;BME280;48941;49.516;8.286;2023-05-25T12:49:23;101070.84;;;25.04;31.58
62849;BME280;48941;49.516;8.286;2023-05-25T12:51:50;101073.94;;;25.29;31.18
62849;BME280;48941;49.516;8.286;2023-05-25T12:54:40;101065.78;;;25.36;31.33
62849;BME280;48941;49.516;8.286;2023-05-25T12:57:11;101062.84;;;25.31;30.87
62849;BME280;48941;49.516;8.286;2023-05-25T12:59:41;101062.84;;;25.44;31.35
62849;BME280;48941;49.516;8.286;2023-05-25T13:02:09;101068.34;;;25.51;31.10
62849;BME280;48941;49.516;8.286;2023-05-25T13:04:39;101065.25;;;25.60;31.92
62849;BME280;48941;49.516;8.286;2023-05-25T13:07:07;101072.75;;;25.52;31.14